DAAS

Ain Arnat Airport

Sétif, Algeria
METAR DAAS 250000Z 10005KT 9999 FEW030 18/11 Q1019
Observed Flight Rules
Apr-25 @ 00:00 UTC (45 minutes ago) Visual Flight Rules
Wind Visibility Clouds
100° at 5 knots 10,000+ meters
  • Few at 3,000' AGL
Temperatures Readings
Current 18°C / 64°F
Dewpoint 11°C / 52°F
Humidity 64%
Altimeter 30.09" Hg
Pressure 1019 hPa
Elevation 1038
METAR DAAS 250000Z 10005KT 9999 FEW030 18/11 Q1019
Observed Flight Rules
Apr-25 @ 00:00 UTC
(45 minutes ago)
VFR
Wind Visibility
100° at 5 knots 10,000+ meters
Clouds
  • Few at 3,000' AGL
Temperature Dewpoint
18°C / 64°F 11°C / 52°F
Humidity Altimeter Pressure
64% 30.09" Hg 1019 hPa